createdAt,value
2024-03-23T00:02:16.490Z,14.49
2024-03-23T00:12:22.611Z,13.91
2024-03-23T00:22:28.755Z,13.23
2024-03-23T00:32:34.884Z,12.87
2024-03-23T00:42:41.050Z,12.62
2024-03-23T00:52:47.197Z,13.48
2024-03-23T01:03:00.457Z,12.9
2024-03-23T01:13:06.598Z,11.52
2024-03-23T01:23:12.747Z,12.09
2024-03-23T01:33:18.925Z,12.19
2024-03-23T01:43:25.027Z,11.03
2024-03-23T01:53:38.299Z,11.33
2024-03-23T02:03:44.442Z,12.6
2024-03-23T02:13:50.611Z,11.18
2024-03-23T02:23:56.739Z,9.97
2024-03-23T02:34:02.870Z,9.62
2024-03-23T02:44:09.002Z,10.33
2024-03-23T02:54:15.174Z,9.44
2024-03-23T03:04:21.289Z,9.67
2024-03-23T03:14:27.450Z,9.98
2024-03-23T03:24:33.569Z,10.05
2024-03-23T03:34:39.698Z,9.44
2024-03-23T03:44:45.847Z,9.62
2024-03-23T03:54:52.001Z,9.22
2024-03-23T04:04:58.120Z,9.19
2024-03-23T04:15:04.289Z,9.26
2024-03-23T04:25:10.491Z,8.48
2024-03-23T04:35:16.551Z,7.38
2024-03-23T04:45:22.692Z,7.73
2024-03-23T04:55:28.816Z,8.19
2024-03-23T05:05:47.710Z,8.02
2024-03-23T05:15:53.847Z,8.2
2024-03-23T05:25:59.984Z,8.04
2024-03-23T05:36:06.140Z,7.58
2024-03-23T05:46:12.277Z,7.18
2024-03-23T05:56:18.411Z,7.17
2024-03-23T06:06:24.547Z,6.81
2024-03-23T06:16:30.708Z,6.56
2024-03-23T06:26:36.845Z,6.04
2024-03-23T06:36:42.991Z,6.64
2024-03-23T06:46:49.120Z,6.35
2024-03-23T06:56:55.265Z,6.54
2024-03-23T07:07:01.404Z,5.84
2024-03-23T07:17:07.543Z,5.35
2024-03-23T07:27:13.674Z,5.3
2024-03-23T07:37:19.806Z,4.98
2024-03-23T07:47:26.042Z,5.52
2024-03-23T07:57:32.085Z,5.04
2024-03-23T08:07:38.228Z,3.96
2024-03-23T08:17:51.514Z,4.77
2024-03-23T08:27:57.662Z,4.09
2024-03-23T08:38:03.800Z,3.91
2024-03-23T08:48:09.928Z,2.9
2024-03-23T08:58:16.111Z,2.72
2024-03-23T09:08:22.223Z,2.07
2024-03-23T09:18:28.356Z,0.88
2024-03-23T09:28:34.497Z,0.85
2024-03-23T09:38:40.647Z,0.78
2024-03-23T09:48:46.774Z,0.74
2024-03-23T09:58:52.895Z,0.86
2024-03-23T10:08:59.055Z,1.46
2024-03-23T10:19:05.187Z,0.76
2024-03-23T10:29:11.357Z,0.79
2024-03-23T10:39:17.470Z,0.98
2024-03-23T10:59:29.747Z,1.33
2024-03-23T11:09:35.896Z,0.81
2024-03-23T11:19:42.046Z,1.33
2024-03-23T11:29:48.165Z,1.16
2024-03-23T11:40:07.047Z,2.81
2024-03-23T11:50:13.194Z,6.71
2024-03-23T12:00:19.335Z,6.07
2024-03-23T12:10:25.472Z,3.61
2024-03-23T12:20:31.622Z,3.96
2024-03-23T12:30:37.770Z,2.99
2024-03-23T12:40:43.899Z,3.06
2024-03-23T12:50:57.173Z,2.65
2024-03-23T13:01:03.333Z,1.63
2024-03-23T13:11:16.607Z,1.82
2024-03-23T13:21:22.750Z,2.28
2024-03-23T13:31:36.039Z,1.45
2024-03-23T13:41:42.173Z,1.7
2024-03-23T13:51:48.318Z,2.04
2024-03-23T14:01:56.194Z,1.47
2024-03-23T14:12:00.587Z,1.47
2024-03-23T14:22:06.729Z,1.36
2024-03-23T14:32:12.886Z,1.36
2024-03-23T14:42:19.031Z,1.44
2024-03-23T14:52:25.154Z,1.7
2024-03-23T15:02:31.322Z,1.25
2024-03-23T15:12:37.453Z,1.45
2024-03-23T15:22:43.570Z,1.7
2024-03-23T15:32:49.708Z,2.24
2024-03-23T15:42:55.859Z,2.15
2024-03-23T15:53:01.995Z,2.2
2024-03-23T16:03:08.117Z,1.54
2024-03-23T16:13:14.260Z,1.95
2024-03-23T16:23:20.401Z,1.96
2024-03-23T16:33:33.765Z,1.68
2024-03-23T16:43:39.843Z,2.23
2024-03-23T16:53:45.961Z,2.83
2024-03-23T17:03:52.123Z,2.6
2024-03-23T17:13:58.268Z,2.85
2024-03-23T17:24:04.410Z,2.19
2024-03-23T17:34:10.532Z,2.94
2024-03-23T17:44:16.674Z,2.71
2024-03-23T17:54:22.806Z,1.85
2024-03-23T18:04:28.939Z,2.3
2024-03-23T18:14:35.104Z,1.45
2024-03-23T18:24:41.241Z,2.19
2024-03-23T18:34:47.370Z,2.07
2024-03-23T18:44:53.516Z,2.3
2024-03-23T18:54:59.641Z,2.23
2024-03-23T19:05:05.781Z,2.89
2024-03-23T19:15:12.860Z,2.68
2024-03-23T19:25:18.058Z,3.52
2024-03-23T19:35:24.219Z,3.66
2024-03-23T19:45:37.495Z,3
2024-03-23T20:05:49.815Z,4.2
2024-03-23T20:15:55.908Z,4.09
2024-03-23T20:26:02.064Z,25.68
2024-03-23T20:36:08.204Z,20.08
2024-03-23T20:46:14.330Z,16.06
2024-03-23T20:56:20.453Z,13.29
2024-03-23T21:06:26.606Z,11
2024-03-23T21:16:32.742Z,10.17
2024-03-23T21:26:38.893Z,9.69
2024-03-23T21:36:45.044Z,9.32
2024-03-23T21:46:51.172Z,8.94
2024-03-23T21:56:57.301Z,8.04
2024-03-23T22:07:03.452Z,8.13
2024-03-23T22:17:09.580Z,8.62
2024-03-23T22:27:15.764Z,7.64
2024-03-23T22:37:22.476Z,7.75
2024-03-23T22:47:28.036Z,6.77
2024-03-23T22:57:34.151Z,7.85
2024-03-23T23:07:53.045Z,6.79
2024-03-23T23:17:59.173Z,7.29
2024-03-23T23:28:05.295Z,7.06
2024-03-23T23:38:11.456Z,6.74
2024-03-23T23:48:17.596Z,6.29
2024-03-23T23:58:23.751Z,7.37
